createdAt,value
2023-06-17T00:04:11.706Z,101385.44
2023-06-17T00:09:16.236Z,101383.78
2023-06-17T00:14:21.914Z,101379.38
2023-06-17T00:19:24.279Z,101377.41
2023-06-17T00:24:29.510Z,101371.38
2023-06-17T00:29:31.603Z,101364.19
2023-06-17T00:34:40.993Z,101373.81
2023-06-17T00:39:45.355Z,101356.66
2023-06-17T00:44:54.730Z,101361.06
2023-06-17T00:49:57.696Z,101361.88
2023-06-17T00:54:59.809Z,101352.25
2023-06-17T01:05:16.619Z,101346.03
2023-06-17T01:10:58.800Z,101346.53
2023-06-17T01:16:03.176Z,101354.88
2023-06-17T01:21:05.804Z,101344.94
2023-06-17T01:26:08.616Z,101336.97
2023-06-17T01:31:13.968Z,101336.69
2023-06-17T01:36:38.133Z,101340.78
2023-06-17T01:41:46.934Z,101342.59
2023-06-17T01:46:49.198Z,101334.13
2023-06-17T01:51:51.985Z,101336.75
2023-06-17T01:56:54.597Z,101335.78
2023-06-17T02:01:56.810Z,101327.78
2023-06-17T02:07:00.747Z,101319.78
2023-06-17T02:12:03.037Z,101312.94
2023-06-17T02:17:05.743Z,101312.44
2023-06-17T02:22:08.230Z,101298.91
2023-06-17T02:27:12.920Z,101313.13
2023-06-17T02:32:15.129Z,101307.91
2023-06-17T02:37:17.568Z,101299.75
2023-06-17T02:42:20.011Z,101307.06
2023-06-17T02:47:27.784Z,101302.84
2023-06-17T02:52:31.923Z,101306.94
2023-06-17T02:57:39.722Z,101311.53
2023-06-17T03:02:42.451Z,101311.03
2023-06-17T03:07:46.911Z,101309.22
2023-06-17T03:12:49.290Z,101309.56
2023-06-17T03:17:51.858Z,101312.16
2023-06-17T03:22:55.242Z,101306.94
2023-06-17T03:28:04.030Z,101306.47
2023-06-17T03:33:07.505Z,101305.66
2023-06-17T03:38:19.449Z,101311.03
2023-06-17T03:43:22.309Z,101307.78
2023-06-17T03:48:25.268Z,101297.34
2023-06-17T03:53:31.191Z,101306.31
2023-06-17T03:58:36.210Z,101301.75
2023-06-17T04:04:03.443Z,101311.84
2023-06-17T04:25:02.002Z,101311.69
2023-06-17T04:30:05.309Z,101312.69
2023-06-17T04:35:08.192Z,101307.78
2023-06-17T04:40:14.342Z,101306.81
2023-06-17T04:45:21.994Z,101311.38
2023-06-17T04:50:30.571Z,101307.31
2023-06-17T04:55:36.633Z,101313.66
2023-06-17T05:00:40.271Z,101313.66
2023-06-17T05:05:42.944Z,101308.13
2023-06-17T05:10:45.259Z,101309.75
2023-06-17T05:15:47.472Z,101305.84
2023-06-17T05:20:50.218Z,101309.09
2023-06-17T05:25:52.903Z,101317.25
2023-06-17T05:30:57.958Z,101319.88
2023-06-17T05:36:02.887Z,101320.84
2023-06-17T05:41:06.001Z,101319.84
2023-06-17T05:46:08.648Z,101324.91
2023-06-17T05:51:11.472Z,101329.63
2023-06-17T05:56:14.039Z,101328.00
2023-06-17T06:01:22.471Z,101331.91
2023-06-17T06:06:24.772Z,101337.13
2023-06-17T06:11:28.033Z,101345.13
2023-06-17T06:16:31.460Z,101348.69
2023-06-17T06:21:36.159Z,101347.19
2023-06-17T06:26:38.390Z,101357.41
2023-06-17T06:31:44.622Z,101355.06
2023-06-17T06:36:48.707Z,101359.56
2023-06-17T06:41:51.495Z,101372.81
2023-06-17T06:47:04.964Z,101364.56
2023-06-17T06:52:10.795Z,101374.38
2023-06-17T06:57:13.131Z,101370.41
2023-06-17T07:02:18.569Z,101389.59
2023-06-17T07:07:20.701Z,101379.31
2023-06-17T07:12:27.058Z,101388.63
2023-06-17T07:17:29.532Z,101371.34
2023-06-17T07:22:31.921Z,101378.03
2023-06-17T07:27:38.325Z,101378.97
2023-06-17T07:32:40.614Z,101373.41
2023-06-17T07:37:42.797Z,101375.59
2023-06-17T07:42:45.159Z,101371.09
2023-06-17T07:47:57.610Z,101373.94
2023-06-17T07:52:59.966Z,101365.72
2023-06-17T07:58:02.317Z,101364.69
2023-06-17T08:03:04.668Z,101362.00
2023-06-17T08:08:06.786Z,101358.63
2023-06-17T08:13:09.211Z,101353.50
2023-06-17T08:18:12.250Z,101353.16
2023-06-17T08:23:14.442Z,101343.75
2023-06-17T08:28:16.876Z,101352.25
2023-06-17T08:33:19.170Z,101336.34
2023-06-17T08:38:21.354Z,101331.00
2023-06-17T08:43:26.456Z,101342.41
2023-06-17T08:48:28.512Z,101351.34
2023-06-17T08:53:41.596Z,101345.16
2023-06-17T08:58:45.265Z,101342.94
2023-06-17T09:03:51.678Z,101338.16
2023-06-17T09:08:57.058Z,101342.69
2023-06-17T09:14:02.131Z,101327.19
2023-06-17T09:19:11.383Z,101331.22
2023-06-17T09:24:13.696Z,101322.78
2023-06-17T09:29:16.140Z,101320.72
2023-06-17T09:34:19.050Z,101315.16
2023-06-17T09:39:30.511Z,101315.50
2023-06-17T09:44:33.030Z,101326.78
2023-06-17T09:49:37.966Z,101318.69
2023-06-17T09:54:42.517Z,101317.91
2023-06-17T09:59:51.694Z,101313.16
2023-06-17T10:04:54.811Z,101315.78
2023-06-17T10:09:57.825Z,101330.56
2023-06-17T10:15:02.260Z,101323.25
2023-06-17T10:20:10.013Z,101326.41
2023-06-17T10:25:16.145Z,101324.63
2023-06-17T10:30:28.860Z,101325.50
2023-06-17T10:35:41.650Z,101319.66
2023-06-17T10:40:52.036Z,101328.31
2023-06-17T10:45:56.195Z,101315.41
2023-06-17T10:51:02.525Z,101318.38
2023-06-17T10:56:06.502Z,101308.19
2023-06-17T11:01:12.808Z,101314.97
2023-06-17T11:06:24.632Z,101321.44
2023-06-17T11:11:26.881Z,101308.19
2023-06-17T11:16:32.382Z,101310.97
2023-06-17T11:21:34.623Z,101312.28
2023-06-17T11:26:37.148Z,101311.31
2023-06-17T11:31:41.742Z,101300.19
2023-06-17T11:36:44.762Z,101307.34
2023-06-17T11:41:47.196Z,101296.84
2023-06-17T11:47:03.197Z,101280.72
2023-06-17T11:52:10.093Z,101281.28
2023-06-17T11:57:18.134Z,101271.06
2023-06-17T12:02:27.892Z,101266.66
2023-06-17T12:07:37.473Z,101280.38
2023-06-17T12:12:41.360Z,101260.44
2023-06-17T12:17:46.036Z,101263.13
2023-06-17T12:22:56.038Z,101261.94
2023-06-17T12:27:58.235Z,101259.72
2023-06-17T12:33:03.878Z,101259.06
2023-06-17T12:38:06.291Z,101249.41
2023-06-17T12:43:08.965Z,101241.50
2023-06-17T12:48:16.882Z,101243.16
2023-06-17T12:53:25.270Z,101236.88
2023-06-17T12:58:27.569Z,101231.47
2023-06-17T13:03:30.026Z,101243.63
2023-06-17T13:08:32.256Z,101230.84
2023-06-17T13:13:34.536Z,101230.66
2023-06-17T13:18:36.830Z,101220.22
2023-06-17T13:23:38.953Z,101218.88
2023-06-17T13:28:41.307Z,101220.78
2023-06-17T13:33:46.816Z,101232.53
2023-06-17T13:38:48.962Z,101222.19
2023-06-17T13:43:51.207Z,101222.00
2023-06-17T13:48:53.456Z,101211.28
2023-06-17T13:53:55.492Z,101207.78
2023-06-17T13:58:58.491Z,101206.06
2023-06-17T14:04:01.061Z,101212.38
2023-06-17T14:09:06.573Z,101190.84
2023-06-17T14:14:08.766Z,101188.31
2023-06-17T14:19:14.773Z,101180.91
2023-06-17T14:24:17.776Z,101179.03
2023-06-17T14:29:20.348Z,101182.19
2023-06-17T14:34:22.681Z,101182.44
2023-06-17T14:39:25.056Z,101186.50
2023-06-17T14:44:52.790Z,101183.63
2023-06-17T14:49:55.113Z,101197.78
2023-06-17T14:55:00.448Z,101192.66
2023-06-17T15:00:03.065Z,101197.78
2023-06-17T15:05:05.962Z,101189.50
2023-06-17T15:10:08.653Z,101197.31
2023-06-17T15:15:15.032Z,101210.13
2023-06-17T15:20:24.765Z,101201.09
2023-06-17T15:25:27.213Z,101193.88
2023-06-17T15:30:29.212Z,101189.84
2023-06-17T15:35:31.422Z,101187.50
2023-06-17T15:40:33.652Z,101182.72
2023-06-17T15:45:38.909Z,101183.63
2023-06-17T15:50:41.293Z,101176.16
2023-06-17T15:55:46.507Z,101169.50
2023-06-17T16:00:50.099Z,101171.94
2023-06-17T16:06:01.013Z,101163.09
2023-06-17T16:11:04.579Z,101163.56
2023-06-17T16:16:06.956Z,101152.81
2023-06-17T16:21:34.416Z,101167.16
2023-06-17T16:26:36.553Z,101176.16
2023-06-17T16:31:38.702Z,101181.09
2023-06-17T16:36:40.910Z,101184.69
2023-06-17T16:41:43.070Z,101160.31
2023-06-17T16:46:55.058Z,101153.81
2023-06-17T16:51:57.230Z,101148.00
2023-06-17T16:56:59.572Z,101167.72
2023-06-17T17:02:01.715Z,101185.38
2023-06-17T17:07:11.618Z,101185.97
2023-06-17T17:12:14.236Z,101179.47
2023-06-17T17:17:20.780Z,101191.63
2023-06-17T17:22:23.055Z,101185.44
2023-06-17T17:27:29.194Z,101180.47
2023-06-17T17:32:31.482Z,101183.56
2023-06-17T17:37:42.931Z,101185.50
2023-06-17T17:42:44.968Z,101186.59
2023-06-17T17:47:47.180Z,101180.56
2023-06-17T17:52:50.468Z,101188.66
2023-06-17T18:49:24.795Z,101203.78
2023-06-17T18:54:37.599Z,101191.84
2023-06-17T18:59:43.468Z,101176.41
2023-06-17T19:04:47.556Z,101161.09
2023-06-17T19:09:56.709Z,101142.19
2023-06-17T19:15:03.038Z,101135.59
2023-06-17T19:20:18.194Z,101155.34
2023-06-17T19:25:36.310Z,101167.19
2023-06-17T19:30:39.960Z,101173.69
2023-06-17T19:35:53.984Z,101171.16
2023-06-17T19:41:03.021Z,101164.19
2023-06-17T19:46:18.144Z,101166.06
2023-06-17T19:51:33.715Z,101160.69
2023-06-17T19:56:41.071Z,101197.84
2023-06-17T20:01:49.654Z,101213.03
2023-06-17T20:06:56.830Z,101216.97
2023-06-17T20:12:02.699Z,101215.25
2023-06-17T20:17:16.196Z,101238.13
2023-06-17T20:22:36.899Z,101236.63
2023-06-17T20:27:47.805Z,101223.16
2023-06-17T20:32:59.756Z,101219.19
2023-06-17T20:38:08.643Z,101219.19
2023-06-17T20:43:18.821Z,101247.06
2023-06-17T20:48:25.319Z,101268.19
2023-06-17T20:53:34.765Z,101287.69
2023-06-17T20:58:41.953Z,101301.16
2023-06-17T21:03:51.405Z,101287.69
2023-06-17T21:09:00.886Z,101292.78
2023-06-17T21:14:07.258Z,101288.38
2023-06-17T21:19:12.939Z,101296.72
2023-06-17T21:24:18.067Z,101313.78
2023-06-17T21:29:24.587Z,101325.06
2023-06-17T21:34:32.767Z,101334.72
2023-06-17T21:40:03.961Z,101337.34
2023-06-17T21:45:09.539Z,101337.34
2023-06-17T21:50:13.545Z,101345.06
2023-06-17T21:55:18.324Z,101351.56
2023-06-17T22:00:24.270Z,101350.06
2023-06-17T22:10:56.853Z,101361.53
2023-06-17T22:16:09.498Z,101365.94
2023-06-17T22:21:14.613Z,101349.94
2023-06-17T22:31:47.687Z,101322.19
2023-06-17T22:36:54.235Z,101303.28
2023-06-17T22:41:59.679Z,101298.63
2023-06-17T22:47:04.778Z,101280.03
2023-06-17T22:52:13.499Z,101267.50
2023-06-17T22:57:23.847Z,101252.84
2023-06-17T23:02:34.721Z,101233.34
2023-06-17T23:07:46.408Z,101206.66
2023-06-17T23:12:58.840Z,101203.84
2023-06-17T23:18:05.909Z,101195.38
2023-06-17T23:23:24.138Z,101204.00
2023-06-17T23:28:36.187Z,101212.47
2023-06-17T23:33:45.894Z,101203.66
2023-06-17T23:39:04.008Z,101197.16
2023-06-17T23:44:08.796Z,101196.72
2023-06-17T23:49:20.038Z,101202.63
2023-06-17T23:54:27.672Z,101206.91
2023-06-17T23:59:35.069Z,101202.47
